Time;durP1;ratioP1;P1;durP2;ratioP2;P2;SDS_P1;SDS_P2;PMS_P1;PMS_P2;Temp;Humidity;BMP_temperature;BMP_pressure;BME280_temperature;BME280_humidity;BME280_pressure;Samples;Min_cycle;Max_cycle;Signal;HPM_P1;HPM_P2
2020/12/21 00:00:27;;;;;;;77.20;30.75;;;;;;;-2.25;100.00;101017.13;1702992;84;21585;-72
2020/12/21 00:02:59;;;;;;;80.67;29.02;;;;;;;-2.27;100.00;101011.66;1702834;84;21158;-72
2020/12/21 00:05:28;;;;;;;65.83;29.12;;;;;;;-2.29;100.00;101014.90;1703042;84;21008;-72
2020/12/21 00:08:03;;;;;;;70.95;30.08;;;;;;;-2.29;100.00;101018.84;1702959;84;21266;-72
2020/12/21 00:10:34;;;;;;;90.42;33.88;;;;;;;-2.28;100.00;101023.98;1702901;84;20970;-73
2020/12/21 00:13:02;;;;;;;66.40;25.40;;;;;;;-2.30;100.00;101023.73;1702909;84;21087;-74
2020/12/21 00:15:32;;;;;;;72.90;31.95;;;;;;;-2.32;100.00;101028.33;1702998;83;20948;-73
2020/12/21 00:18:02;;;;;;;83.62;30.25;;;;;;;-2.32;100.00;101025.70;1703395;83;20933;-73
2020/12/21 00:20:30;;;;;;;71.85;29.70;;;;;;;-2.28;100.00;101028.38;1703138;83;22121;-72
2020/12/21 00:22:59;;;;;;;58.13;25.48;;;;;;;-2.27;100.00;101024.81;1703279;84;20937;-72
2020/12/21 00:25:28;;;;;;;;;;;;;;;-2.27;100.00;101028.75;1705681;84;21012;-73
2020/12/21 00:27:56;;;;;;;66.10;24.98;;;;;;;-2.28;100.00;101024.44;1703013;84;20256;-73
2020/12/21 00:30:27;;;;;;;60.90;25.92;;;;;;;-2.30;100.00;101022.42;1703398;84;21593;-72
2020/12/21 00:32:55;;;;;;;56.75;23.52;;;;;;;-2.30;100.00;101019.33;1702967;84;21503;-73
2020/12/21 00:35:24;;;;;;;61.68;25.05;;;;;;;-2.30;100.00;101020.65;1703190;83;26385;-73
2020/12/21 00:37:52;;;;;;;64.35;25.35;;;;;;;-2.33;100.00;101026.16;1703324;84;20909;-72
2020/12/21 00:40:20;;;;;;;62.40;24.98;;;;;;;-2.32;100.00;101021.75;1703342;84;20940;-73
2020/12/21 00:42:49;;;;;;;;;;;;;;;-2.32;100.00;101023.06;1705800;83;20984;-71
2020/12/21 00:45:17;;;;;;;73.33;23.65;;;;;;;-2.34;100.00;101018.42;1702638;84;21294;-73
2020/12/21 00:47:48;;;;;;;57.23;25.20;;;;;;;-2.37;100.00;101019.03;1703123;84;21016;-73
2020/12/21 00:50:19;;;;;;;55.88;25.10;;;;;;;-2.35;100.00;101017.59;1701988;83;20975;-72
2020/12/21 00:52:48;;;;;;;58.58;23.57;;;;;;;-2.36;100.00;101009.34;1703150;84;21067;-72
2020/12/21 00:55:17;;;;;;;61.30;24.87;;;;;;;-2.37;100.00;101012.45;1703301;84;21120;-72
2020/12/21 00:57:47;;;;;;;52.58;24.15;;;;;;;-2.38;100.00;101006.86;1703150;83;21199;-71
2020/12/21 01:00:15;;;;;;;50.78;22.52;;;;;;;-2.39;100.00;101005.66;1703192;84;21027;-72
2020/12/21 01:02:45;;;;;;;51.95;22.60;;;;;;;-2.41;100.00;101007.10;1703276;83;21056;-72
2020/12/21 01:05:15;;;;;;;45.83;19.73;;;;;;;-2.40;100.00;101002.67;1703177;84;21047;-72
2020/12/21 01:07:44;;;;;;;49.67;21.65;;;;;;;-2.44;100.00;101001.30;1702188;83;21051;-72
2020/12/21 01:10:12;;;;;;;49.80;23.40;;;;;;;-2.44;100.00;101006.06;1703281;84;21484;-71
2020/12/21 01:12:40;;;;;;;51.20;21.40;;;;;;;-2.42;100.00;101006.77;1703545;83;28229;-72
2020/12/21 01:15:09;;;;;;;46.50;20.27;;;;;;;-2.42;100.00;101005.94;1703306;84;26541;-72
2020/12/21 01:17:37;;;;;;;61.37;27.30;;;;;;;-2.42;100.00;100997.56;1703363;84;28091;-72
2020/12/21 01:20:05;;;;;;;45.83;21.05;;;;;;;-2.38;100.00;101004.69;1703313;84;21121;-71
2020/12/21 01:22:34;;;;;;;53.50;23.92;;;;;;;-2.35;100.00;101005.76;1702650;84;26528;-72
2020/12/21 01:25:02;;;;;;;43.78;18.65;;;;;;;-2.35;100.00;100995.70;1703047;84;20953;-72
2020/12/21 01:27:31;;;;;;;52.62;23.73;;;;;;;-2.37;100.00;101001.94;1705812;84;20948;-71
2020/12/21 01:29:59;;;;;;;53.02;25.00;;;;;;;-2.38;100.00;101003.37;1706356;84;26397;-72
2020/12/21 01:32:27;;;;;;;50.10;20.62;;;;;;;-2.37;100.00;100998.48;1703582;84;27196;-72
2020/12/21 01:34:59;;;;;;;;;;;;;;;-2.37;100.00;100999.30;1705562;83;21202;-72
2020/12/21 01:37:27;;;;;;;51.60;22.05;;;;;;;-2.35;100.00;100999.64;1703078;84;20161;-72
2020/12/21 01:39:56;;;;;;;54.63;22.07;;;;;;;-2.34;100.00;100992.12;1703216;84;25156;-73
2020/12/21 01:42:24;;;;;;;42.13;18.73;;;;;;;-2.37;100.00;100993.22;1703260;83;21052;-72
2020/12/21 01:44:55;;;;;;;44.63;22.35;;;;;;;-2.37;100.00;100995.36;1703307;84;21150;-72
2020/12/21 01:47:24;;;;;;;56.28;25.20;;;;;;;-2.40;100.00;100991.69;1703182;84;21307;-71
2020/12/21 01:49:52;;;;;;;50.67;20.82;;;;;;;-2.40;100.00;100992.15;1703239;83;21507;-72
2020/12/21 01:52:20;;;;;;;43.20;20.17;;;;;;;-2.41;100.00;100986.55;1703300;84;20960;-72
2020/12/21 01:54:49;;;;;;;60.75;24.95;;;;;;;-2.43;100.00;100985.85;1703369;83;21774;-72
2020/12/21 01:57:18;;;;;;;49.75;22.22;;;;;;;-2.45;100.00;100986.00;1703361;84;21559;-72
2020/12/21 01:59:50;;;;;;;58.20;24.52;;;;;;;-2.43;100.00;100984.53;1703318;83;21011;-72
2020/12/21 02:02:18;;;;;;;44.63;19.00;;;;;;;-2.42;100.00;100989.67;1683009;84;21566;-73
2020/12/21 02:04:46;;;;;;;48.35;20.80;;;;;;;-2.43;100.00;100989.30;1703278;84;21717;-72
2020/12/21 02:07:15;;;;;;;52.75;21.77;;;;;;;-2.44;100.00;100987.66;1702842;84;21182;-71
2020/12/21 02:09:43;;;;;;;42.65;20.50;;;;;;;-2.40;100.00;100986.89;1703537;83;21087;-73
2020/12/21 02:12:11;;;;;;;46.20;21.55;;;;;;;-2.43;100.00;100987.16;1683251;83;21213;-71
2020/12/21 02:14:39;;;;;;;45.52;21.60;;;;;;;-2.43;100.00;100987.99;1703333;84;21079;-72
2020/12/21 02:17:07;;;;;;;50.90;22.52;;;;;;;-2.42;100.00;100986.22;1706768;83;21000;-72
2020/12/21 02:19:35;;;;;;;55.35;25.75;;;;;;;-2.39;100.00;100980.20;1703416;83;21138;-72
2020/12/21 02:22:03;;;;;;;52.98;21.82;;;;;;;-2.39;100.00;100985.95;1688877;84;21510;-72
2020/12/21 02:24:32;;;;;;;51.40;22.22;;;;;;;-2.37;100.00;100979.58;1670412;86;21338;-73
2020/12/21 02:27:00;;;;;;;66.47;26.15;;;;;;;-2.37;100.00;100975.64;1670560;86;25556;-73
2020/12/21 02:29:29;;;;;;;52.30;20.57;;;;;;;-2.35;100.00;100969.40;1684321;84;21520;-71
2020/12/21 02:31:59;;;;;;;53.80;21.87;;;;;;;-2.34;100.00;100968.45;1684204;84;21169;-73
2020/12/21 02:34:27;;;;;;;54.48;24.00;;;;;;;-2.39;100.00;100969.67;1675997;84;21575;-72
2020/12/21 02:36:56;;;;;;;55.52;23.20;;;;;;;-2.40;100.00;100972.42;1684288;84;21382;-73
2020/12/21 02:39:24;;;;;;;63.23;26.25;;;;;;;-2.42;100.00;100964.70;1684276;83;21072;-73
2020/12/21 02:41:53;;;;;;;62.15;27.17;;;;;;;-2.38;100.00;100966.55;1684934;84;20941;-72
2020/12/21 02:44:21;;;;;;;67.05;26.80;;;;;;;-2.39;100.00;100974.94;1684491;84;21480;-71
2020/12/21 02:46:49;;;;;;;55.33;26.02;;;;;;;-2.37;100.00;100969.55;1675947;84;21058;-72
2020/12/21 02:49:17;;;;;;;58.85;24.02;;;;;;;-2.35;100.00;100974.66;1684544;84;21379;-72
2020/12/21 02:51:53;;;;;;;52.53;23.07;;;;;;;-2.39;100.00;100972.30;1684396;84;21588;-73
2020/12/21 02:54:21;;;;;;;69.67;27.75;;;;;;;-2.40;100.00;100977.69;1684211;84;20950;-71
2020/12/21 02:56:53;;;;;;;58.63;23.70;;;;;;;-2.38;100.00;100984.50;1684595;84;20945;-71
2020/12/21 02:59:23;;;;;;;56.58;24.37;;;;;;;-2.35;100.00;100985.17;1684589;84;21059;-71
2020/12/21 03:01:51;;;;;;;52.58;23.52;;;;;;;-2.42;100.00;100979.65;1684505;84;22179;-72
2020/12/21 03:04:20;;;;;;;56.83;24.72;;;;;;;-2.42;100.00;100979.65;1684300;84;21722;-72
2020/12/21 03:06:50;;;;;;;55.17;24.92;;;;;;;-2.40;100.00;100982.48;1684320;84;20953;-72
2020/12/21 03:09:18;;;;;;;63.50;26.62;;;;;;;-2.35;100.00;100985.17;1684331;84;21131;-73
2020/12/21 03:11:48;;;;;;;58.30;23.12;;;;;;;-2.36;100.00;100985.66;1675334;84;21158;-72
2020/12/21 03:14:16;;;;;;;64.90;27.85;;;;;;;-2.35;100.00;100987.80;1684497;84;21867;-72
2020/12/21 03:16:45;;;;;;;53.38;23.38;;;;;;;-2.37;100.00;100988.78;1684480;84;21067;-71
2020/12/21 03:19:14;;;;;;;64.35;28.00;;;;;;;-2.37;100.00;100990.59;1684287;84;21068;-71
2020/12/21 03:21:43;;;;;;;62.03;27.27;;;;;;;-2.38;100.00;100987.59;1675677;83;20966;-71
2020/12/21 03:24:11;;;;;;;57.62;24.32;;;;;;;-2.38;100.00;100980.56;1655023;86;21061;-71
2020/12/21 03:26:39;;;;;;;52.35;25.23;;;;;;;-2.35;100.00;100982.09;1650494;86;21802;-73
2020/12/21 03:29:07;;;;;;;50.55;22.48;;;;;;;-2.33;100.00;100981.45;1650412;86;20975;-71
2020/12/21 03:31:37;;;;;;;49.05;22.85;;;;;;;-2.29;100.00;100986.80;1654833;86;21032;-72
2020/12/21 03:34:06;;;;;;;50.12;24.92;;;;;;;-2.34;100.00;100982.42;1650428;86;21031;-71
2020/12/21 03:36:34;;;;;;;44.00;20.50;;;;;;;-2.35;100.00;100982.55;1654794;86;21627;-72
2020/12/21 03:39:03;;;;;;;42.15;20.50;;;;;;;-2.38;100.00;100984.50;1648890;86;21220;-72
2020/12/21 03:41:31;;;;;;;45.40;20.82;;;;;;;-2.38;100.00;100996.80;1648940;86;20979;-73
2020/12/21 03:44:00;;;;;;;;;;;;;;;-2.40;100.00;100990.38;1651059;86;21078;-72
2020/12/21 03:46:28;;;;;;;;;;;;;;;-2.40;100.00;100989.52;1651885;85;20531;-72
2020/12/21 03:48:56;;;;;;;61.27;24.97;;;;;;;-2.40;100.00;100993.47;1649323;85;20238;-72
2020/12/21 03:51:24;;;;;;;;;;;;;;;-2.41;100.00;100995.76;1651254;86;21210;-71
2020/12/21 03:53:52;;;;;;;52.13;23.30;;;;;;;-2.41;100.00;100987.88;1649459;85;20246;-72
2020/12/21 03:56:20;;;;;;;65.52;29.25;;;;;;;-2.41;100.00;100995.27;1648951;86;21498;-72
2020/12/21 03:58:48;;;;;;;56.30;27.80;;;;;;;-2.40;100.00;100994.78;1648937;85;21797;-71
2020/12/21 04:01:16;;;;;;;48.23;20.45;;;;;;;-2.37;100.00;100994.05;1649065;85;21615;-72
2020/12/21 04:03:47;;;;;;;;;;;;;;;-2.33;100.00;100992.45;1650963;85;21206;-73
2020/12/21 04:06:15;;;;;;;52.48;22.05;;;;;;;-2.29;100.00;100990.73;1648426;85;20230;-72
2020/12/21 04:08:44;;;;;;;52.78;21.15;;;;;;;-2.31;100.00;100986.09;1649576;85;21281;-71
2020/12/21 04:11:14;;;;;;;55.50;23.20;;;;;;;-2.34;100.00;100987.68;1649291;85;21341;-71
2020/12/21 04:13:42;;;;;;;57.70;25.20;;;;;;;-2.36;100.00;100981.72;1648679;86;20940;-72
2020/12/21 04:16:10;;;;;;;60.75;27.13;;;;;;;-2.35;100.00;100986.03;1649350;85;21743;-73
2020/12/21 04:18:38;;;;;;;60.48;28.38;;;;;;;-2.36;100.00;100983.03;1643264;85;21106;-72
2020/12/21 04:21:13;;;;;;;54.40;23.18;;;;;;;-2.37;100.00;100984.84;1649444;85;21177;-71
2020/12/21 04:23:41;;;;;;;66.45;27.20;;;;;;;-2.36;100.00;100979.09;1701746;83;21117;-72
2020/12/21 04:26:11;;;;;;;77.67;29.60;;;;;;;-2.37;100.00;100978.75;1712946;83;20892;-72
2020/12/21 04:28:39;;;;;;;66.02;27.40;;;;;;;-2.35;100.00;100976.83;1714408;83;21334;-71
2020/12/21 04:31:07;;;;;;;56.40;23.35;;;;;;;-2.35;100.00;100976.83;1714680;83;21137;-71
2020/12/21 04:33:36;;;;;;;66.37;26.55;;;;;;;-2.35;100.00;100975.97;1714695;83;21063;-70
2020/12/21 04:36:14;;;;;;;74.40;30.57;;;;;;;-2.34;100.00;100983.73;1715069;83;21170;-72
2020/12/21 04:38:43;;;;;;;75.57;30.08;;;;;;;-2.32;100.00;100979.18;1714546;83;21039;-71
2020/12/21 04:41:11;;;;;;;77.35;30.15;;;;;;;-2.31;100.00;100986.58;1694409;83;22515;-73
2020/12/21 04:43:39;;;;;;;66.40;27.95;;;;;;;-2.33;100.00;100977.50;1714144;83;20948;-73
2020/12/21 04:46:08;;;;;;;77.12;32.40;;;;;;;-2.31;100.00;100981.32;1714070;83;21011;-71
2020/12/21 04:48:40;;;;;;;69.75;29.32;;;;;;;-2.28;100.00;100988.48;1714152;83;21126;-72
2020/12/21 04:51:08;;;;;;;74.17;29.98;;;;;;;-2.26;100.00;100985.20;1713472;83;21154;-71
2020/12/21 04:53:39;;;;;;;74.92;32.65;;;;;;;-2.26;100.00;100985.20;1714218;83;21755;-72
2020/12/21 04:56:08;;;;;;;85.80;36.28;;;;;;;-2.24;100.00;100987.70;1714035;83;21003;-71
2020/12/21 04:58:36;;;;;;;66.47;30.85;;;;;;;-2.23;100.00;100993.30;1714211;83;21039;-73
2020/12/21 05:01:05;;;;;;;81.17;34.03;;;;;;;-2.24;100.00;100995.11;1694053;83;20995;-71
2020/12/21 05:03:33;;;;;;;61.90;25.45;;;;;;;-2.21;100.00;101000.58;1714104;83;21506;-71
2020/12/21 05:06:06;;;;;;;71.80;29.92;;;;;;;-2.22;100.00;100989.72;1714198;83;21208;-71
2020/12/21 05:08:35;;;;;;;82.60;30.17;;;;;;;-2.24;100.00;100992.97;1713619;83;21051;-72
2020/12/21 05:11:05;;;;;;;82.60;32.60;;;;;;;-2.26;100.00;100985.20;1713981;83;21633;-72
2020/12/21 05:13:34;;;;;;;72.70;30.27;;;;;;;-2.21;100.00;100996.64;1714051;83;21091;-71
2020/12/21 05:16:02;;;;;;;;;;;;;;;-2.22;100.00;100998.44;1716812;83;21493;-71
2020/12/21 05:18:34;;;;;;;;;;;;;;;-2.24;100.00;100997.73;1714647;83;21216;-72
2020/12/21 05:21:10;;;;;;;91.32;30.77;;;;;;;-2.26;100.00;100998.84;1714085;83;20140;-71
2020/12/21 05:23:40;;;;;;;81.07;34.13;;;;;;;-2.28;100.00;101002.08;1692876;83;21504;-72
2020/12/21 05:26:11;;;;;;;86.97;35.70;;;;;;;-2.27;100.00;101001.13;1636118;85;21561;-72
2020/12/21 05:28:40;;;;;;;80.75;31.52;;;;;;;-2.28;100.00;101006.89;1679250;85;21102;-72
2020/12/21 05:31:11;;;;;;;102.95;37.00;;;;;;;-2.28;100.00;101008.20;1679251;85;21284;-73
2020/12/21 05:33:45;;;;;;;102.60;40.73;;;;;;;-2.28;100.00;100999.45;1679059;85;21111;-73
2020/12/21 05:36:18;;;;;;;90.17;36.42;;;;;;;-2.30;100.00;101005.33;1679440;85;21515;-71
2020/12/21 05:38:59;;;;;;;87.60;33.10;;;;;;;-2.27;100.00;101001.13;1679220;85;21605;-72
2020/12/21 05:41:27;;;;;;;85.10;35.17;;;;;;;-2.26;100.00;101003.61;1679498;85;20955;-72
2020/12/21 05:43:58;;;;;;;;;;;;;;;-2.26;100.00;101002.78;1681896;84;22152;-73
2020/12/21 05:46:30;;;;;;;85.77;35.17;;;;;;;-2.27;100.00;101003.77;1688069;84;22411;-71
2020/12/21 05:48:59;;;;;;;76.75;32.67;;;;;;;-2.27;100.00;100997.19;1680918;84;21601;-71
2020/12/21 05:51:36;;;;;;;88.07;34.63;;;;;;;-2.25;100.00;101001.84;1681024;84;21152;-72
2020/12/21 05:54:06;;;;;;;88.30;36.20;;;;;;;-2.25;100.00;100994.77;1681113;84;21185;-71
2020/12/21 05:56:36;;;;;;;105.87;39.55;;;;;;;-2.24;100.00;100996.91;1680910;84;21211;-72
2020/12/21 05:59:04;;;;;;;101.12;36.95;;;;;;;-2.26;100.00;100994.41;1661599;85;21217;-72
2020/12/21 06:01:33;;;;;;;104.72;40.65;;;;;;;-2.24;100.00;101000.37;1680840;84;21518;-71
2020/12/21 06:04:03;;;;;;;100.50;39.00;;;;;;;-2.24;100.00;101003.00;1681009;84;20935;-72
2020/12/21 06:06:35;;;;;;;115.03;43.48;;;;;;;-2.23;100.00;101003.83;1677485;84;21074;-71
2020/12/21 06:09:04;;;;;;;109.37;45.52;;;;;;;-2.21;100.00;101000.09;1680955;84;21277;-71
2020/12/21 06:11:35;;;;;;;128.05;44.45;;;;;;;-2.17;100.00;101000.67;1686195;84;21530;-72
2020/12/21 06:14:15;;;;;;;133.97;50.88;;;;;;;-2.13;100.00;101007.79;1681523;85;21612;-72
2020/12/21 06:16:44;;;;;;;100.33;37.38;;;;;;;-2.09;100.00;101009.20;1680921;84;20955;-70
2020/12/21 06:19:26;;;;;;;113.97;39.60;;;;;;;-2.05;100.00;101010.11;1680804;84;21069;-70
2020/12/21 06:21:56;;;;;;;125.10;44.13;;;;;;;-2.04;100.00;101005.18;1681323;84;21442;-70
2020/12/21 06:24:26;;;;;;;104.92;38.85;;;;;;;-2.02;100.00;101013.77;1686963;84;21209;-70
2020/12/21 06:26:57;;;;;;;94.75;35.83;;;;;;;-2.04;100.00;101016.19;1685647;84;21315;-71
2020/12/21 06:29:28;;;;;;;81.95;30.88;;;;;;;-2.03;100.00;101020.02;1685372;84;21196;-70
2020/12/21 06:32:05;;;;;;;81.75;32.30;;;;;;;-1.99;100.00;101020.07;1690094;84;21545;-71
2020/12/21 06:34:40;;;;;;;78.85;29.37;;;;;;;-1.98;100.00;101015.17;1690225;85;21215;-70
2020/12/21 06:37:19;;;;;;;86.25;30.20;;;;;;;-1.97;100.00;101025.21;1685811;85;21121;-70
2020/12/21 06:40:04;;;;;;;97.55;36.23;;;;;;;-1.99;100.00;101020.56;1690058;84;21149;-70
2020/12/21 06:42:32;;;;;;;101.62;35.48;;;;;;;-2.03;100.00;101023.14;1690092;84;21006;-70
2020/12/21 06:45:12;;;;;;;80.85;33.50;;;;;;;-1.99;100.00;101021.88;1689441;85;21494;-71
2020/12/21 06:47:40;;;;;;;99.87;37.80;;;;;;;-1.95;100.00;101019.33;1685154;85;22278;-72
2020/12/21 06:50:10;;;;;;;92.05;38.00;;;;;;;-1.95;100.00;101021.96;1689951;85;20935;-72
2020/12/21 06:52:45;;;;;;;80.50;32.03;;;;;;;-1.93;100.00;101020.03;1685336;84;21023;-71
2020/12/21 06:55:13;;;;;;;86.95;34.73;;;;;;;-1.92;100.00;101023.00;1689681;84;20944;-71
2020/12/21 06:57:52;;;;;;;86.75;35.78;;;;;;;-1.89;100.00;101027.16;1689996;85;20935;-72
2020/12/21 07:00:21;;;;;;;78.15;31.55;;;;;;;-1.88;100.00;101024.89;1690289;84;22189;-71
2020/12/21 07:02:49;;;;;;;109.07;36.38;;;;;;;-1.88;100.00;101024.40;1690055;84;20919;-71
2020/12/21 07:05:51;;;;;;;106.45;36.73;;;;;;;-1.84;100.00;101029.72;1685472;84;21110;-72
2020/12/21 07:08:19;;;;;;;105.92;37.73;;;;;;;-1.82;100.00;101028.27;1683834;84;21149;-71
2020/12/21 07:10:51;;;;;;;104.87;35.00;;;;;;;-1.82;100.00;101026.95;1686728;85;21588;-72
2020/12/21 07:13:19;;;;;;;109.20;33.18;;;;;;;-1.80;100.00;101025.85;1665006;84;21569;-73
2020/12/21 07:15:47;;;;;;;97.50;36.10;;;;;;;-1.80;100.00;101028.97;1689122;85;21160;-71
2020/12/21 07:18:15;;;;;;;77.08;32.75;;;;;;;-1.81;100.00;101025.52;1685537;85;21602;-71
2020/12/21 07:20:45;;;;;;;74.55;29.02;;;;;;;-1.79;100.00;101020.95;1660923;86;21655;-70
2020/12/21 07:23:12;;;;;;;71.95;32.25;;;;;;;-1.79;100.00;101022.73;1685016;85;21636;-71
2020/12/21 07:25:51;;;;;;;111.45;53.17;;;;;;;-1.79;100.00;101018.32;1664205;84;22359;-71
2020/12/21 07:28:26;;;;;;;66.95;27.17;;;;;;;-1.77;100.00;101024.74;1685791;84;21093;-72
2020/12/21 07:31:16;;;;;;;163.95;73.65;;;;;;;-1.77;100.00;101029.52;1690103;84;21627;-70
2020/12/21 07:34:13;;;;;;;160.10;71.42;;;;;;;-1.76;100.00;101031.69;1673323;85;21691;-72
2020/12/21 07:36:43;;;;;;;92.35;40.50;;;;;;;-1.72;100.00;101029.11;1573186;90;21177;-71
2020/12/21 07:39:17;;;;;;;81.28;29.50;;;;;;;-1.67;100.00;101026.06;1595970;90;21304;-70
2020/12/21 07:41:48;;;;;;;123.15;62.08;;;;;;;-1.64;100.00;101033.22;1618442;88;20993;-71
2020/12/21 07:44:35;;;;;;;86.22;34.27;;;;;;;-1.65;100.00;101030.22;1619775;88;21051;-72
2020/12/21 07:47:28;;;;;;;70.70;29.92;;;;;;;-1.67;100.00;101031.33;1616599;88;21198;-73
2020/12/21 07:49:57;;;;;;;63.48;28.85;;;;;;;-1.68;100.00;101033.14;1616437;88;21157;-72
2020/12/21 07:52:26;;;;;;;62.23;26.35;;;;;;;-1.66;100.00;101037.79;1616375;88;21220;-72
2020/12/21 07:54:59;;;;;;;560.73;314.68;;;;;;;-1.63;100.00;101030.92;1616285;88;21088;-71
2020/12/21 07:57:31;;;;;;;206.95;99.87;;;;;;;-1.59;100.00;101024.91;1616293;88;21085;-72
2020/12/21 08:00:00;;;;;;;110.42;47.03;;;;;;;-1.54;100.00;101020.88;1616240;88;21283;-71
2020/12/21 08:02:32;;;;;;;104.75;52.20;;;;;;;-1.45;100.00;101026.27;1616323;88;21123;-72
2020/12/21 08:05:20;;;;;;;141.00;75.30;;;;;;;-1.46;100.00;101025.45;1616415;88;21277;-73
2020/12/21 08:07:55;;;;;;;108.85;54.38;;;;;;;-1.38;100.00;101022.94;1858613;75;27777;-72
2020/12/21 08:10:24;;;;;;;98.78;39.95;;;;;;;-1.39;100.00;101018.66;1815092;78;20920;-70
2020/12/21 08:12:52;;;;;;;104.65;52.10;;;;;;;-1.36;100.00;101018.37;1820333;78;21354;-72
2020/12/21 08:15:22;;;;;;;121.30;52.67;;;;;;;-1.31;100.00;101014.00;1819995;78;20936;-71
2020/12/21 08:17:50;;;;;;;92.50;38.50;;;;;;;-1.31;100.00;101008.23;1819875;78;20912;-72
2020/12/21 08:20:21;;;;;;;74.15;33.42;;;;;;;-1.30;100.00;101014.33;1819907;78;20987;-71
2020/12/21 08:22:49;;;;;;;70.80;31.23;;;;;;;-1.32;100.00;101005.27;1820063;78;21544;-72
2020/12/21 08:25:18;;;;;;;75.12;32.85;;;;;;;-1.32;100.00;101003.13;1820091;78;21098;-71
2020/12/21 08:27:52;;;;;;;97.05;45.03;;;;;;;-1.33;100.00;101005.40;1819932;78;20923;-72
2020/12/21 08:30:22;;;;;;;89.05;37.17;;;;;;;-1.33;100.00;100998.81;1819820;78;20991;-72
2020/12/21 08:32:52;;;;;;;158.50;109.32;;;;;;;-1.34;100.00;101003.26;1819886;78;21117;-72
2020/12/21 08:35:29;;;;;;;79.67;38.73;;;;;;;-1.42;100.00;101003.14;1819919;78;20983;-71
2020/12/21 08:38:17;;;;;;;105.00;49.42;;;;;;;-1.42;100.00;100998.33;1819898;78;22201;-71
2020/12/21 08:40:56;;;;;;;251.32;134.27;;;;;;;-1.38;100.00;100998.41;1819909;78;20971;-72
2020/12/21 08:43:24;;;;;;;112.85;45.78;;;;;;;-1.30;100.00;101007.74;1819848;78;21493;-74
2020/12/21 08:45:52;;;;;;;108.15;51.20;;;;;;;-1.20;100.00;101000.68;1819973;78;21620;-70
2020/12/21 08:48:21;;;;;;;107.95;58.63;;;;;;;-1.18;100.00;101005.79;1820076;78;20991;-70
2020/12/21 08:51:00;;;;;;;;;;;;;;;;;;;;;
2020/12/21 08:53:37;;;;;;;81.50;33.30;;;;;;;-1.20;100.00;100995.41;1877796;76;24501;-72
2020/12/21 08:56:11;;;;;;;80.53;34.30;;;;;;;-1.19;100.00;100999.70;1817427;79;20979;-72
2020/12/21 08:58:39;;;;;;;89.17;41.10;;;;;;;-1.13;100.00;100997.83;1817286;79;21251;-73
2020/12/21 09:01:29;;;;;;;89.92;36.00;;;;;;;-1.09;100.00;100986.00;1817320;79;20955;-71
2020/12/21 09:04:00;;;;;;;78.35;32.88;;;;;;;-1.07;100.00;100985.87;1731979;82;21521;-72
2020/12/21 09:06:28;;;;;;;66.22;29.12;;;;;;;-1.01;100.00;100994.52;1731941;82;20935;-71
2020/12/21 09:08:57;;;;;;;74.92;33.48;;;;;;;-0.96;100.00;100991.45;1732037;82;21481;-74
2020/12/21 09:11:26;;;;;;;66.10;32.33;;;;;;;-0.90;100.00;100987.77;1732043;82;22714;-72
2020/12/21 09:13:55;;;;;;;73.57;30.15;;;;;;;-0.85;100.00;100993.10;1732024;82;21097;-71
2020/12/21 09:16:25;;;;;;;67.15;28.38;;;;;;;-0.83;100.00;100988.02;1732102;82;20966;-72
2020/12/21 09:18:54;;;;;;;82.70;42.53;;;;;;;-0.78;100.00;100997.65;1731956;82;20911;-72
2020/12/21 09:21:28;;;;;;;68.10;33.23;;;;;;;-0.75;100.00;100992.08;1731979;82;21034;-72
2020/12/21 09:23:59;;;;;;;68.10;30.80;;;;;;;-0.68;100.00;100991.02;1731721;82;22051;-72
2020/12/21 09:26:29;;;;;;;71.67;29.85;;;;;;;-0.65;100.00;100983.63;1731974;82;20951;-71
2020/12/21 09:28:59;;;;;;;81.35;38.65;;;;;;;-0.66;100.00;100980.67;1761411;81;21065;-73
2020/12/21 09:31:28;;;;;;;76.17;32.80;;;;;;;-0.67;100.00;100980.80;1768181;81;21073;-72
2020/12/21 09:33:57;;;;;;;79.92;37.00;;;;;;;-0.63;100.00;100982.67;1768323;81;20930;-72
2020/12/21 09:36:27;;;;;;;76.53;35.55;;;;;;;-0.61;100.00;100982.02;1768252;81;21370;-72
2020/12/21 09:38:58;;;;;;;71.45;31.27;;;;;;;-0.55;100.00;100976.17;1763930;81;21084;-72
2020/12/21 09:41:27;;;;;;;60.58;28.30;;;;;;;-0.53;100.00;100980.32;1768331;81;20929;-73
2020/12/21 09:43:57;;;;;;;85.60;45.78;;;;;;;-0.48;100.00;100971.48;1768327;81;20943;-72
2020/12/21 09:46:26;;;;;;;71.53;35.75;;;;;;;-0.49;100.00;100968.98;1768384;81;20919;-72
2020/12/21 09:48:54;;;;;;;85.60;40.05;;;;;;;-0.49;100.00;100967.66;1768316;81;21430;-72
2020/12/21 09:51:22;;;;;;;60.38;29.18;;;;;;;-0.48;100.00;100967.52;1768452;81;21129;-72
2020/12/21 09:53:50;;;;;;;72.67;32.78;;;;;;;-0.41;100.00;100964.31;1768257;81;21065;-72
2020/12/21 09:56:20;;;;;;;;;;;;;;;-0.40;100.00;100966.78;1770756;81;20883;-73
2020/12/21 09:58:51;;;;;;;94.15;36.48;;;;;;;-0.40;100.00;100962.83;1767630;81;20168;-71
2020/12/21 10:01:19;;;;;;;83.42;35.65;;;;;;;-0.39;100.00;100961.86;1768319;81;21239;-73
2020/12/21 10:03:49;;;;;;;73.85;31.95;;;;;;;-0.39;100.00;100967.14;1762978;79;21073;-72
2020/12/21 10:06:17;;;;;;;80.45;38.95;;;;;;;-0.33;100.00;100963.07;1762234;81;20995;-73
2020/12/21 10:08:54;;;;;;;90.92;37.80;;;;;;;-0.28;100.00;100961.64;1761719;81;20986;-72
2020/12/21 10:11:22;;;;;;;71.28;30.12;;;;;;;-0.19;100.00;100960.42;1762584;81;21129;-73
2020/12/21 10:13:51;;;;;;;72.12;31.42;;;;;;;-0.21;100.00;100963.20;1762479;81;21572;-72
2020/12/21 10:16:19;;;;;;;68.95;30.48;;;;;;;-0.25;100.00;100967.11;1762466;81;20935;-71
2020/12/21 10:18:47;;;;;;;68.78;31.75;;;;;;;-0.24;100.00;100961.69;1762421;81;20931;-70
2020/12/21 10:21:16;;;;;;;62.80;26.87;;;;;;;-0.22;100.00;100959.73;1762522;81;21565;-71
2020/12/21 10:23:44;;;;;;;67.80;30.55;;;;;;;-0.20;100.00;100954.79;1762519;81;21005;-73
2020/12/21 10:26:12;;;;;;;65.17;32.08;;;;;;;-0.14;100.00;100952.39;1762405;81;21425;-72
2020/12/21 10:28:41;;;;;;;70.42;30.65;;;;;;;-0.19;100.00;100948.05;1762235;81;21014;-72
2020/12/21 10:31:10;;;;;;;71.10;34.15;;;;;;;-0.19;100.00;100944.09;1762468;81;21042;-71
2020/12/21 10:33:39;;;;;;;65.90;28.80;;;;;;;-0.22;100.00;100939.13;1762267;81;20923;-72
2020/12/21 10:36:07;;;;;;;68.50;30.37;;;;;;;-0.16;100.00;100946.92;1762485;81;20915;-73
2020/12/21 10:38:36;;;;;;;67.27;30.48;;;;;;;-0.12;100.00;100946.94;1766501;77;21363;-72
2020/12/21 10:41:05;;;;;;;54.60;26.75;;;;;;;-0.05;100.00;100949.33;1764878;77;21072;-71
2020/12/21 10:43:34;;;;;;;53.55;25.77;;;;;;;0.03;100.00;100940.68;1762303;81;20962;-71
2020/12/21 10:46:03;;;;;;;59.33;31.00;;;;;;;0.04;100.00;100936.55;1750048;81;20974;-73
2020/12/21 10:48:32;;;;;;;60.05;27.73;;;;;;;0.07;100.00;100939.38;1732079;82;21156;-74
2020/12/21 10:51:00;;;;;;;75.17;34.85;;;;;;;0.07;100.00;100942.84;1732111;82;21375;-71
2020/12/21 10:53:28;;;;;;;79.82;38.95;;;;;;;0.11;100.00;100932.33;1732091;82;20934;-72
2020/12/21 10:55:57;;;;;;;70.32;37.42;;;;;;;0.02;100.00;100933.72;1732174;82;28090;-71
2020/12/21 10:58:26;;;;;;;58.75;29.10;;;;;;;-0.05;100.00;100925.11;1732190;82;20939;-71
2020/12/21 11:00:54;;;;;;;67.70;31.90;;;;;;;-0.04;100.00;100935.98;1732034;82;21050;-72
2020/12/21 11:03:22;;;;;;;65.92;32.78;;;;;;;0.03;100.00;100929.63;1751082;81;21371;-72
2020/12/21 11:05:51;;;;;;;59.35;30.30;;;;;;;0.10;100.00;100928.04;1763995;81;21035;-72
2020/12/21 11:08:18;;;;;;;66.65;30.62;;;;;;;0.17;100.00;100921.64;1764148;81;20928;-71
2020/12/21 11:10:48;;;;;;;54.90;27.62;;;;;;;0.10;100.00;100912.66;1763882;81;21146;-70
2020/12/21 11:13:16;;;;;;;54.33;29.15;;;;;;;0.11;100.00;100919.13;1763935;81;20889;-72
2020/12/21 11:15:44;;;;;;;62.40;33.78;;;;;;;0.19;100.00;100911.26;1764081;81;21333;-73
2020/12/21 11:18:12;;;;;;;82.15;40.28;;;;;;;0.21;100.00;100911.12;1762973;81;20992;-72